createdAt,value
2023-07-22T00:08:21.136Z,90.95
2023-07-22T00:18:25.933Z,91.17
2023-07-22T00:28:28.775Z,91.97
2023-07-22T00:38:33.410Z,92.84
2023-07-22T00:48:36.645Z,94.05
2023-07-22T00:58:41.950Z,93.66
2023-07-22T01:08:45.323Z,93.29
2023-07-22T01:18:49.656Z,93.59
2023-07-22T01:29:03.208Z,94.29
2023-07-22T01:39:07.233Z,93.84
2023-07-22T01:49:13.990Z,95.02
2023-07-22T01:59:16.947Z,94.46
2023-07-22T02:09:21.004Z,94.56
2023-07-22T02:19:24.641Z,95.39
2023-07-22T02:29:32.189Z,95.18
2023-07-22T02:39:34.984Z,95.42
2023-07-22T02:49:40.310Z,95.24
2023-07-22T02:59:44.710Z,95.44
2023-07-22T03:09:48.835Z,95.18
2023-07-22T03:19:52.030Z,95.80
2023-07-22T03:29:56.177Z,95.88
2023-07-22T03:39:58.917Z,95.68
2023-07-22T03:50:21.077Z,96.39
2023-07-22T04:00:23.972Z,96.44
2023-07-22T04:10:28.337Z,96.15
2023-07-22T04:20:31.621Z,96.01
2023-07-22T04:30:35.737Z,96.07
2023-07-22T04:40:39.291Z,95.72
2023-07-22T04:50:46.152Z,95.49
2023-07-22T05:00:49.747Z,95.14
2023-07-22T05:10:54.686Z,94.56
2023-07-22T05:20:57.421Z,93.96
2023-07-22T05:31:02.371Z,93.56
2023-07-22T05:41:05.174Z,93.04
2023-07-22T05:51:09.569Z,93.07
2023-07-22T06:01:13.695Z,92.67
2023-07-22T06:11:18.618Z,91.93
2023-07-22T06:21:21.402Z,91.63
2023-07-22T06:31:25.920Z,91.14
2023-07-22T06:41:28.733Z,90.59
2023-07-22T06:51:33.004Z,89.42
2023-07-22T07:01:35.727Z,88.06
2023-07-22T07:11:40.023Z,87.70
2023-07-22T07:21:42.745Z,87.48
2023-07-22T07:31:47.001Z,85.84
2023-07-22T07:41:49.701Z,84.55
2023-07-22T07:51:54.105Z,82.59
2023-07-22T08:01:57.088Z,81.04
2023-07-22T08:12:01.467Z,80.02
2023-07-22T08:22:04.762Z,79.97
2023-07-22T08:32:09.409Z,77.81
2023-07-22T08:42:15.492Z,77.28
2023-07-22T08:52:20.579Z,76.21
2023-07-22T09:02:23.739Z,73.48
2023-07-22T09:12:28.768Z,71.37
2023-07-22T09:22:32.665Z,71.62
2023-07-22T09:32:38.481Z,69.10
2023-07-22T09:42:41.545Z,64.21
2023-07-22T09:52:48.547Z,62.79
2023-07-22T10:02:51.873Z,65.41
2023-07-22T10:12:58.007Z,66.32
2023-07-22T10:23:01.746Z,67.43
2023-07-22T10:33:06.095Z,67.94
2023-07-22T10:43:08.974Z,68.08
2023-07-22T10:53:14.121Z,69.32
2023-07-22T11:03:16.934Z,71.74
2023-07-22T11:13:21.050Z,73.47
2023-07-22T11:23:26.605Z,75.11
2023-07-22T11:33:41.976Z,79.22
2023-07-22T11:43:44.764Z,80.42
2023-07-22T11:53:50.997Z,79.67
2023-07-22T12:03:58.256Z,80.52
2023-07-22T12:14:14.719Z,82.63
2023-07-22T12:24:18.305Z,88.47
2023-07-22T12:34:22.495Z,90.41
2023-07-22T12:44:25.681Z,91.73
2023-07-22T12:54:29.825Z,92.31
2023-07-22T13:04:32.569Z,93.45
2023-07-22T13:14:39.778Z,94.72
2023-07-22T13:24:43.040Z,94.75
2023-07-22T13:34:47.221Z,95.37
2023-07-22T13:44:50.993Z,95.10
2023-07-22T13:54:55.331Z,94.12
2023-07-22T14:04:58.105Z,94.49
2023-07-22T14:15:02.143Z,95.20
2023-07-22T14:25:05.394Z,96.56
2023-07-22T14:35:10.474Z,97.78
2023-07-22T14:45:13.238Z,98.37
2023-07-22T14:55:17.316Z,98.13
2023-07-22T15:05:20.163Z,98.09
2023-07-22T15:15:24.354Z,98.02
2023-07-22T15:25:26.997Z,97.64
2023-07-22T15:35:31.092Z,97.07
2023-07-22T15:45:34.295Z,97.32
2023-07-22T15:55:38.863Z,97.68
2023-07-22T16:05:44.101Z,99.29
2023-07-22T16:15:49.429Z,99.37
2023-07-22T16:25:52.512Z,100.83
2023-07-22T16:35:56.805Z,101.23
2023-07-22T16:45:59.740Z,101.57
2023-07-22T16:56:04.029Z,101.54
2023-07-22T17:06:06.916Z,101.93
2023-07-22T17:16:11.577Z,101.83
2023-07-22T17:26:14.413Z,101.99
2023-07-22T17:36:18.564Z,101.84
2023-07-22T17:46:21.472Z,102.21
2023-07-22T17:56:25.618Z,102.18
2023-07-22T18:06:28.610Z,102.04
2023-07-22T18:16:33.000Z,102.20
2023-07-22T18:26:36.637Z,102.46
2023-07-22T18:36:42.353Z,102.47
2023-07-22T18:46:53.178Z,102.80
2023-07-22T18:56:57.579Z,102.77
2023-07-22T19:07:08.134Z,102.77
2023-07-22T19:17:12.721Z,102.63
2023-07-22T19:27:18.373Z,103.00
2023-07-22T19:37:23.085Z,103.16
2023-07-22T19:47:26.117Z,103.28
2023-07-22T19:57:30.515Z,103.57
2023-07-22T20:07:33.313Z,104.22
2023-07-22T20:17:37.681Z,103.93
2023-07-22T20:27:41.354Z,104.06
2023-07-22T20:37:46.324Z,104.32
2023-07-22T20:47:49.506Z,104.90
2023-07-22T20:57:54.680Z,105.01
2023-07-22T21:07:57.393Z,105.64
2023-07-22T21:18:03.180Z,105.36
2023-07-22T21:28:06.338Z,105.82
2023-07-22T21:38:10.701Z,105.31
2023-07-22T21:48:13.799Z,105.32
2023-07-22T21:58:17.930Z,105.42
2023-07-22T22:09:18.904Z,105.92
2023-07-22T22:19:59.703Z,106.50
2023-07-22T22:30:19.030Z,106.25
2023-07-22T22:52:13.917Z,105.92
2023-07-22T23:02:24.751Z,105.56
2023-07-22T23:12:27.639Z,105.49
2023-07-22T23:22:31.728Z,105.77
2023-07-22T23:32:36.466Z,105.63
2023-07-22T23:42:40.485Z,105.67
2023-07-22T23:52:46.462Z,105.36
